Maersk Belfast — 9V6969 — position and weather

sailwx.info

Track history (hours):
 
Tides and Currents Weather Stations Pressure Air Temp Water Temp Dewpoint Dewpoint Depression Visibility Wind Speed Wind Dir Waves Ship Positions

Maersk Belfast

Last reported at 2018-May-24 00:32 UTC. Time now 2018-May-24 23:29 UTC.
Position N 45°37' W 073°30'.

Length 175 m; draft 9.4 m.

Type: Tanker. MMSI: 566503000.

Date/timePositionNaut miles runAvg speedWind from/ knotsBaromVisibWave heightAir tempDewpointWater temp
2018-May-24 00:32N 45°37' W 073°30'0 5.1
2018-May-24 00:29N 45°38' W 073°29'4 7.1
2018-May-23 23:58N 45°41' W 073°27'4 8.7
2018-May-23 23:30N 45°44' W 073°25'4 8.7
2018-May-23 23:01N 45°48' W 073°20'5 9.4
2018-May-23 22:30N 45°51' W 073°16'5 9.0
2018-May-23 22:00N 45°55' W 073°13'4 8.9
2018-May-23 21:31N 45°59' W 073°11'4 8.4
2018-May-23 21:00N 46°03' W 073°08'4 8.7
2018-May-23 20:30N 46°04' W 073°02'88 8.2
2018-May-23 09:43N 46°49' W 071°12'2 6.7
2018-May-23 09:28N 46°50' W 071°10'  
2018-May-14 02:39N 37°03' W 012°51'211.8
2018-May-14 02:31N 37°03' W 012°50'611.8
2018-May-14 02:01N 37°01' W 012°42'611.9
2018-May-14 01:30N 36°59' W 012°35'612.0
2018-May-14 01:01N 36°57' W 012°28'  
Track history (hours):
 
Tides and Currents Weather Stations Pressure Air Temp Water Temp Dewpoint Dewpoint Depression Visibility Wind Speed Wind Dir Waves Ship Positions

Maersk Belfast

Last reported at 2018-May-24 00:32 UTC. Time now 2018-May-24 23:29 UTC.
Position N 45°37' W 073°30'.

Length 175 m; draft 9.4 m.

Type: Tanker. MMSI: 566503000.

Date/timePositionNaut miles runAvg speedWind from/ knotsBaromVisibWave heightAir tempDewpointWater temp
2018-May-24 00:32N 45°37' W 073°30'0 5.1
2018-May-24 00:29N 45°38' W 073°29'4 7.1
2018-May-23 23:58N 45°41' W 073°27'4 8.7
2018-May-23 23:30N 45°44' W 073°25'4 8.7
2018-May-23 23:01N 45°48' W 073°20'5 9.4
2018-May-23 22:30N 45°51' W 073°16'5 9.0
2018-May-23 22:00N 45°55' W 073°13'4 8.9
2018-May-23 21:31N 45°59' W 073°11'4 8.4
2018-May-23 21:00N 46°03' W 073°08'4 8.7
2018-May-23 20:30N 46°04' W 073°02'88 8.2
2018-May-23 09:43N 46°49' W 071°12'2 6.7
2018-May-23 09:28N 46°50' W 071°10'  
2018-May-14 02:39N 37°03' W 012°51'211.8
2018-May-14 02:31N 37°03' W 012°50'611.8
2018-May-14 02:01N 37°01' W 012°42'611.9
2018-May-14 01:30N 36°59' W 012°35'612.0
2018-May-14 01:01N 36°57' W 012°28'  

Dump ship's entire track history